Indianapolis, Indiana
Traffic Map
Current Weather Conditions
Indianapolis, Indiana
Few Clouds
Few Clouds
51°
Feels Like: 51°
Wind Chill: 51° Ceiling: Unl
Heat Index: 51° Visibility: 10mi
Dew Point: 35° Wind: 16mph
Humidity: 54% Direction: 350° (N)
Pressure: 30.01in Gusts: 0mph
Raw Report DataKIND 271454Z 35014KT 10SM FEW200 11/02 A3001 RMK AO2 SLP164 T01060017 50002
Traffic Incident Summary
Active as of:
Severity:
Category:
InformationThere was an issue retrieving the traffic information for this location. Please try a different location or try again shortly.
Advertisements
Track Severe Weather on mobile